createdAt,value
2022-09-17T00:03:09.780Z,9.50
2022-09-17T00:07:11.441Z,9.40
2022-09-17T00:11:14.481Z,9.50
2022-09-17T00:15:16.436Z,9.50
2022-09-17T00:19:19.748Z,9.40
2022-09-17T00:23:21.508Z,9.40
2022-09-17T00:27:24.109Z,9.50
2022-09-17T00:31:26.128Z,9.50
2022-09-17T00:35:28.048Z,9.40
2022-09-17T00:39:29.685Z,9.40
2022-09-17T00:43:36.961Z,9.40
2022-09-17T00:47:40.258Z,9.40
2022-09-17T00:51:43.731Z,9.40
2022-09-17T00:55:48.517Z,9.50
2022-09-17T00:59:50.657Z,9.50
2022-09-17T01:03:52.219Z,9.50
2022-09-17T01:08:01.301Z,9.60
2022-09-17T01:12:05.926Z,9.60
2022-09-17T01:16:18.462Z,9.60
2022-09-17T01:20:23.030Z,9.60
2022-09-17T01:29:31.567Z,9.70
2022-09-17T01:33:33.528Z,9.70
2022-09-17T01:37:50.521Z,9.70
2022-09-17T01:42:04.168Z,9.70
2022-09-17T01:46:11.746Z,9.70
2022-09-17T01:50:17.263Z,9.80
2022-09-17T01:54:21.891Z,9.80
2022-09-17T01:58:26.576Z,9.70
2022-09-17T02:02:34.109Z,9.70
2022-09-17T02:06:38.038Z,9.70
2022-09-17T02:10:45.388Z,9.70
2022-09-17T02:14:58.422Z,9.70
2022-09-17T02:19:18.586Z,9.70
2022-09-17T02:23:27.485Z,9.70
2022-09-17T02:27:38.351Z,9.70
2022-09-17T02:31:41.909Z,9.70
2022-09-17T02:35:43.970Z,9.70
2022-09-17T02:39:45.545Z,9.70
2022-09-17T02:43:53.351Z,9.70
2022-09-17T02:48:09.497Z,9.70
2022-09-17T02:52:23.374Z,9.70
2022-09-17T02:56:39.893Z,9.70
2022-09-17T03:00:41.818Z,9.70
2022-09-17T03:04:46.774Z,9.80
2022-09-17T03:08:48.427Z,9.80
2022-09-17T03:12:50.357Z,9.80
2022-09-17T03:16:51.881Z,9.90
2022-09-17T03:20:53.449Z,9.90
2022-09-17T03:24:54.997Z,9.90
2022-09-17T03:28:56.714Z,9.90
2022-09-17T03:32:58.245Z,9.90
2022-09-17T03:36:59.834Z,9.90
2022-09-17T03:41:02.356Z,10.00
2022-09-17T03:45:04.069Z,9.90
2022-09-17T03:49:05.601Z,10.00
2022-09-17T03:53:07.472Z,9.90
2022-09-17T03:57:09.351Z,9.90
2022-09-17T04:01:11.294Z,9.90
2022-09-17T04:05:12.958Z,9.90
2022-09-17T04:09:14.522Z,9.90
2022-09-17T04:13:16.642Z,9.90
2022-09-17T04:17:18.280Z,9.90
2022-09-17T04:21:20.566Z,9.90
2022-09-17T04:25:22.152Z,9.80
2022-09-17T04:29:23.725Z,9.80
2022-09-17T04:33:25.387Z,9.90
2022-09-17T04:37:27.058Z,9.80
2022-09-17T04:41:28.637Z,9.80
2022-09-17T04:45:30.766Z,9.90
2022-09-17T04:49:32.778Z,9.90
2022-09-17T04:53:34.438Z,9.90
2022-09-17T04:57:36.027Z,9.90
2022-09-17T05:01:37.663Z,9.90
2022-09-17T05:05:39.360Z,10.00
2022-09-17T05:09:41.528Z,9.90
2022-09-17T05:13:43.069Z,9.90
2022-09-17T05:17:44.934Z,9.90
2022-09-17T05:21:46.494Z,9.90
2022-09-17T05:25:48.049Z,10.00
2022-09-17T05:29:49.618Z,10.00
2022-09-17T05:33:51.205Z,10.00
2022-09-17T05:37:56.431Z,9.90
2022-09-17T05:41:59.138Z,10.00
2022-09-17T05:46:01.558Z,10.00
2022-09-17T05:50:03.433Z,10.00
2022-09-17T05:54:05.063Z,10.00
2022-09-17T05:58:11.119Z,10.10
2022-09-17T06:02:13.778Z,10.20
2022-09-17T06:06:15.381Z,10.20
2022-09-17T06:10:17.051Z,10.30
2022-09-17T06:14:18.624Z,10.20
2022-09-17T06:18:20.577Z,10.20
2022-09-17T06:22:23.302Z,10.20
2022-09-17T06:26:24.878Z,10.30
2022-09-17T06:30:26.454Z,10.30
2022-09-17T06:34:28.120Z,10.40
2022-09-17T06:38:30.418Z,10.40
2022-09-17T06:42:31.967Z,10.40
2022-09-17T06:46:33.596Z,10.50
2022-09-17T06:50:37.325Z,10.50
2022-09-17T06:54:42.209Z,10.50
2022-09-17T06:58:44.252Z,10.50
2022-09-17T07:02:54.743Z,10.40
2022-09-17T07:06:56.284Z,10.40
2022-09-17T07:10:58.413Z,10.40
2022-09-17T07:14:59.988Z,10.40
2022-09-17T07:19:02.162Z,10.50
2022-09-17T07:23:03.747Z,10.60
2022-09-17T07:27:05.364Z,10.70
2022-09-17T07:31:09.369Z,10.80
2022-09-17T07:35:12.926Z,10.60
2022-09-17T07:39:14.482Z,10.60
2022-09-17T07:43:16.015Z,10.60
2022-09-17T07:47:17.582Z,10.50
2022-09-17T07:51:20.497Z,10.50
2022-09-17T07:55:23.816Z,10.60
2022-09-17T07:59:25.507Z,10.90
2022-09-17T08:03:27.014Z,11.00
2022-09-17T08:07:28.777Z,11.10
2022-09-17T08:15:52.906Z,11.40
2022-09-17T08:19:54.466Z,11.70
2022-09-17T08:23:56.021Z,11.70
2022-09-17T08:27:57.595Z,11.70
2022-09-17T08:32:25.647Z,11.60
2022-09-17T08:36:28.059Z,11.60
2022-09-17T08:40:30.059Z,11.80
2022-09-17T08:44:40.777Z,11.80
2022-09-17T08:48:48.994Z,12.00
2022-09-17T08:53:10.346Z,11.80
2022-09-17T08:57:25.411Z,11.80
2022-09-17T09:01:35.097Z,11.80
2022-09-17T09:05:36.633Z,11.90
2022-09-17T09:09:41.560Z,12.00
2022-09-17T09:13:45.813Z,11.90
2022-09-17T09:17:48.389Z,11.70
2022-09-17T09:21:52.935Z,12.20
2022-09-17T09:26:08.784Z,12.20
2022-09-17T09:30:11.176Z,12.20
2022-09-17T09:34:14.065Z,12.50
2022-09-17T09:38:21.446Z,12.30
2022-09-17T09:42:27.250Z,12.50
2022-09-17T09:46:28.866Z,12.60
2022-09-17T09:50:48.367Z,12.60
2022-09-17T09:55:04.441Z,13.30
2022-09-17T09:59:11.642Z,13.10
2022-09-17T10:03:16.453Z,13.00
2022-09-17T10:07:18.047Z,13.20
2022-09-17T10:11:24.197Z,12.80
2022-09-17T10:15:28.187Z,13.00
2022-09-17T10:19:29.723Z,13.50
2022-09-17T10:23:36.108Z,13.00
2022-09-17T10:27:37.760Z,13.10
2022-09-17T10:32:06.917Z,13.20
2022-09-17T10:36:12.269Z,13.20
2022-09-17T10:40:19.844Z,13.20
2022-09-17T10:44:22.870Z,13.50
2022-09-17T10:48:26.305Z,13.30
2022-09-17T10:52:32.040Z,13.80
2022-09-17T10:56:37.545Z,13.60
2022-09-17T11:00:45.174Z,13.90
2022-09-17T11:05:05.033Z,13.60
2022-09-17T11:09:06.538Z,13.40
2022-09-17T11:13:08.103Z,13.30
2022-09-17T11:17:24.946Z,13.80
2022-09-17T11:21:29.891Z,14.00
2022-09-17T11:25:46.771Z,13.80
2022-09-17T11:29:48.282Z,13.90
2022-09-17T11:33:55.989Z,14.00
2022-09-17T11:38:19.831Z,13.90
2022-09-17T11:42:25.679Z,14.00
2022-09-17T11:46:30.018Z,13.40
2022-09-17T11:50:34.985Z,13.90
2022-09-17T11:54:42.653Z,13.80
2022-09-17T11:58:46.287Z,14.10
2022-09-17T12:02:58.175Z,14.80
2022-09-17T12:07:02.419Z,14.90
2022-09-17T12:11:14.538Z,14.40
2022-09-17T12:15:26.775Z,14.60
2022-09-17T12:19:31.410Z,14.30
2022-09-17T12:23:33.074Z,14.20
2022-09-17T12:27:50.739Z,14.30
2022-09-17T12:31:55.332Z,13.80
2022-09-17T12:36:06.194Z,13.60
2022-09-17T12:40:19.811Z,12.90
2022-09-17T12:44:50.968Z,12.40
2022-09-17T12:49:19.637Z,12.00
2022-09-17T12:53:21.166Z,11.40
2022-09-17T12:57:34.465Z,11.10
2022-09-17T13:01:45.380Z,10.90
2022-09-17T13:05:46.930Z,10.80
2022-09-17T13:09:54.730Z,10.90
2022-09-17T13:14:01.660Z,11.30
2022-09-17T13:18:27.443Z,11.20
2022-09-17T13:22:30.311Z,11.60
2022-09-17T13:26:39.543Z,11.60
2022-09-17T13:31:00.850Z,11.50
2022-09-17T13:35:11.678Z,11.20
2022-09-17T13:39:32.459Z,11.00
2022-09-17T13:43:33.983Z,10.40
2022-09-17T13:47:40.365Z,10.40
2022-09-17T13:51:43.554Z,10.80
2022-09-17T13:55:50.631Z,10.70
2022-09-17T13:59:54.198Z,10.80
2022-09-17T14:03:57.043Z,10.60
2022-09-17T14:08:12.802Z,10.70
2022-09-17T14:12:33.340Z,10.70
2022-09-17T14:16:45.927Z,10.50
2022-09-17T14:20:49.351Z,10.80
2022-09-17T14:24:52.461Z,11.20
2022-09-17T14:28:54.239Z,11.00
2022-09-17T14:32:59.496Z,11.00
2022-09-17T14:37:01.890Z,11.00
2022-09-17T14:41:05.309Z,11.20
2022-09-17T14:45:13.982Z,11.70
2022-09-17T14:49:16.350Z,11.70
2022-09-17T14:53:19.119Z,11.70
2022-09-17T14:57:25.258Z,12.00
2022-09-17T15:01:28.115Z,12.00
2022-09-17T15:05:32.998Z,12.10
2022-09-17T15:09:34.922Z,12.20
2022-09-17T15:13:41.297Z,12.20
2022-09-17T15:17:43.355Z,12.40
2022-09-17T15:21:45.969Z,12.30
2022-09-17T15:25:49.086Z,12.40
2022-09-17T15:29:52.906Z,12.40
2022-09-17T15:33:54.541Z,12.40
2022-09-17T15:38:21.303Z,12.30
2022-09-17T15:42:21.920Z,12.50
2022-09-17T15:46:26.826Z,12.70
2022-09-17T15:50:35.586Z,12.80
2022-09-17T15:54:37.285Z,12.90
2022-09-17T15:58:41.816Z,12.90
2022-09-17T16:02:43.391Z,12.80
2022-09-17T16:07:03.963Z,12.70
2022-09-17T16:11:05.509Z,12.80
2022-09-17T16:15:07.467Z,12.90
2022-09-17T16:19:09.625Z,13.00
2022-09-17T16:23:11.292Z,12.90
2022-09-17T16:27:23.989Z,12.90
2022-09-17T16:31:26.152Z,12.70
2022-09-17T16:35:27.760Z,12.60
2022-09-17T16:39:29.284Z,12.60
2022-09-17T16:43:31.324Z,12.40
2022-09-17T16:47:37.221Z,12.40
2022-09-17T16:51:38.749Z,12.30
2022-09-17T16:55:40.333Z,12.30
2022-09-17T16:59:41.870Z,12.40
2022-09-17T17:03:45.535Z,12.40
2022-09-17T17:07:47.535Z,12.40
2022-09-17T17:11:50.660Z,12.30
2022-09-17T17:15:52.276Z,12.20
2022-09-17T17:19:56.708Z,12.10
2022-09-17T17:23:58.403Z,12.00
2022-09-17T17:28:03.518Z,11.90
2022-09-17T17:32:05.494Z,11.80
2022-09-17T17:36:08.429Z,11.80
2022-09-17T17:40:10.610Z,11.80
2022-09-17T17:44:12.704Z,11.70
2022-09-17T17:48:14.240Z,11.70
2022-09-17T17:52:15.763Z,11.60
2022-09-17T17:56:18.316Z,11.60
2022-09-17T18:00:19.873Z,11.50
2022-09-17T18:04:21.425Z,11.50
2022-09-17T18:08:23.769Z,11.40
2022-09-17T18:12:27.098Z,11.30
2022-09-17T18:16:29.287Z,11.30
2022-09-17T18:20:30.877Z,11.30
2022-09-17T18:24:32.391Z,11.30
2022-09-17T18:28:35.116Z,11.30
2022-09-17T18:32:36.892Z,11.30
2022-09-17T18:36:39.737Z,11.20
2022-09-17T18:40:41.733Z,11.30
2022-09-17T18:44:43.417Z,11.30
2022-09-17T18:48:45.092Z,11.40
2022-09-17T18:52:46.737Z,11.40
2022-09-17T18:56:48.340Z,11.30
2022-09-17T19:00:49.903Z,11.30
2022-09-17T19:04:51.513Z,11.20
2022-09-17T19:08:55.428Z,11.10
2022-09-17T19:12:57.002Z,11.10
2022-09-17T19:16:58.532Z,11.10
2022-09-17T19:21:03.501Z,11.10
2022-09-17T19:25:05.266Z,11.10
2022-09-17T19:29:08.338Z,11.10
2022-09-17T19:33:09.997Z,11.20
2022-09-17T19:37:11.536Z,11.20
2022-09-17T19:41:14.237Z,11.20
2022-09-17T19:45:15.894Z,11.20
2022-09-17T19:49:17.445Z,11.20
2022-09-17T19:53:19.276Z,11.20
2022-09-17T19:57:21.124Z,11.20
2022-09-17T20:01:23.492Z,11.20
2022-09-17T20:05:25.465Z,11.20
2022-09-17T20:09:27.802Z,11.20
2022-09-17T20:13:29.521Z,11.10
2022-09-17T20:17:31.138Z,11.20
2022-09-17T20:21:33.039Z,11.20
2022-09-17T20:25:34.836Z,11.10
2022-09-17T20:29:36.378Z,11.10
2022-09-17T20:33:38.119Z,11.10
2022-09-17T20:42:02.969Z,11.10
2022-09-17T20:46:05.578Z,11.10
2022-09-17T20:50:07.408Z,11.10
2022-09-17T20:54:09.815Z,11.10
2022-09-17T20:58:11.449Z,11.00
2022-09-17T21:02:15.149Z,11.00
2022-09-17T21:06:21.165Z,11.00
2022-09-17T21:10:22.820Z,11.00
2022-09-17T21:14:26.934Z,10.90
2022-09-17T21:18:28.478Z,10.90
2022-09-17T21:22:30.065Z,10.90
2022-09-17T21:26:35.218Z,10.90
2022-09-17T21:30:36.791Z,10.90
2022-09-17T21:34:38.394Z,10.80
2022-09-17T21:38:40.201Z,10.80
2022-09-17T21:42:41.804Z,10.80
2022-09-17T21:46:43.790Z,10.90
2022-09-17T21:50:45.381Z,10.80
2022-09-17T21:54:46.938Z,10.80
2022-09-17T21:58:52.419Z,10.90
2022-09-17T22:02:54.111Z,10.90
2022-09-17T22:06:55.874Z,10.80
2022-09-17T22:11:01.406Z,10.80
2022-09-17T22:15:03.114Z,10.80
2022-09-17T22:19:05.036Z,10.80
2022-09-17T22:23:06.741Z,10.70
2022-09-17T22:27:08.276Z,10.80
2022-09-17T22:31:11.264Z,10.80
2022-09-17T22:35:12.915Z,10.70
2022-09-17T22:39:14.931Z,10.80
2022-09-17T22:43:16.750Z,10.80
2022-09-17T22:47:18.334Z,10.80
2022-09-17T22:51:19.861Z,10.90
2022-09-17T22:55:21.425Z,10.80
2022-09-17T22:59:23.016Z,10.80
2022-09-17T23:03:27.669Z,10.90
2022-09-17T23:07:29.192Z,10.80
2022-09-17T23:11:31.949Z,10.90
2022-09-17T23:15:33.566Z,10.90
2022-09-17T23:19:35.121Z,10.80
2022-09-17T23:23:36.678Z,10.90
2022-09-17T23:27:38.285Z,10.80
2022-09-17T23:31:40.126Z,10.80
2022-09-17T23:35:41.658Z,10.90
2022-09-17T23:39:43.433Z,10.80
2022-09-17T23:43:46.117Z,10.80
2022-09-17T23:47:47.746Z,10.80
2022-09-17T23:51:49.543Z,10.80
2022-09-17T23:55:51.558Z,10.80
2022-09-17T23:59:53.120Z,10.70
